Decoded Metar for PADL (DILLINGHAM in AK, USA) (IATA:DLG) | Meteo·Mobile Aviation Weather
aviador You're here:

PADL Decoded Metar

DILLINGHAM in AK, USA
Report Time2019-04-24 13:56:00
UTC Time2019-04-24 14:20:00
Flight Rules vfr VFR
Wind360° at 08 kt
W.Decomp.*RWY 01: 7.3 kt HW 3.4 kt LCW
Visibility9999 m
Phenomena:N/A
Clouds:N/A
Expected CloudBase > 1,200 ft AGL from Temp-Dew spread
CeilingNone
Temp-6°C (ISA -21)
Dew Point-9°C (80% RH)
AAT-11.9°C
QNH1015 hPa
Density Alt-2,523 ft
Elevation85 ft
Report Wrong Elevation
Raw Report
PADL 241356Z AUTO 36008KT 10SM CLR M06/M09 A2998=

Extra information for PADL:More info

Metar Taf Metar & Taf Last 4 Metars F.Rules Stats Wind Profile Meteogram Temp Stats Airport Information Weather charts Add Link Nearby VenuesMetar ALERT Operation Metar Decoded Social comments

AIRNAV info for PADL